Key West, FL

4:25 PM EDT on September 28, 2016 (GMT -0400)
Big Coppitt Key Gulfside | | Change Station

Elev 31 ft 24.60 °N, 81.67 °W | Updated 3 minutes ago

Scattered Clouds
Scattered Clouds
93.9 °F
Feels Like 102 °F
N
6.8
Wind Variable Wind from SW

Today
High -- | Low -- °F
--% Chance of Precip.
Yesterday
High -- | Low -- °F
Precip. -- in
Pressure 29.99 in
Visibility 10.0 miles
Clouds Few 2500 ft
Scattered Clouds 25000 ft
Heat Index 102 °F
Dew Point 72 °F
Humidity 49%
Rainfall 0.00 in
Snow Depth Not available.
7:17 AM 7:15 PM
Waning Crescent, 4% visible
METAR KNQX 281953Z 19006KT 10SM FEW025 SCT250 30/22 A3000 RMK AO2 SLP156 T03000222 $
Pressure 29.99 in
Visibility 10.0 miles
Clouds Few 2500 ft
Scattered Clouds 25000 ft
Heat Index 102 °F
Dew Point 72 °F
Humidity 49%
Rainfall 0.00 in
Snow Depth Not available.
7:17 AM 7:15 PM
Waning Crescent, 4% visible
METAR KNQX 281953Z 19006KT 10SM FEW025 SCT250 30/22 A3000 RMK AO2 SLP156 T03000222 $

10-Day Weather Forecast

Almanac

Astronomy

Sep. 28, 2016 Rise Set
Actual Time
Civil Twilight
Nautical Twilight
Astronomical Twilight
Moon
Length of Visible Light
Length of Day
Tomorrow will be .
, % of the Moon is Illuminated

Today's Extremes

State Highs State Lows

Community

WunderPhotos

Upload Photos

1,942,318 photos uploaded!

WunderBlog® & News

Nearby

Air Quality

  Air Quality AQ Index Pollutant
Not available.

Snow Depth

Station Depth Elevation

Earthquake Activity

City Distance Mag. Time & Date
Minimum magnitude displayed is 2.5.

Coastal Water Temperatures

Place Temperature

Stations

Nearby Weather Stations

Station Location Temp. Windchill Dew Point Humidity Wind Precip. Elev Updated Type
                   

Watches & Warnings

There are currently no watches in effect.